Caddo Mills, TX

6:33 AM CDT on August 18, 2017 (GMT -0500)
Phluffalicious | | Change Station
Active Advisory: Flood Warning

Elev 539 ft 33.03 °N, 96.23 °W | Updated 17 seconds ago

Mostly Cloudy
Mostly Cloudy
75.0 °F
Feels Like 73 °F
N
0.0
Wind Variable Wind from NNW

Today
High -- | Low -- °F
--% Chance of Precip.
Yesterday
High -- | Low -- °F
Precip. -- in
Pressure 29.99 in
Visibility 10.0 miles
Clouds Clear
Heat Index 73 °F
Dew Point 74 °F
Humidity 95%
Rainfall 0.00 in
Snow Depth Not available.
6:50 AM 8:06 PM
Waning Crescent, 14% visible
METAR KGVT 181115Z AUTO 00000KT 10SM CLR 26/25 A2999 RMK AO2
Pressure 29.99 in
Visibility 10.0 miles
Clouds Clear
Heat Index 73 °F
Dew Point 74 °F
Humidity 95%
Rainfall 0.00 in
Snow Depth Not available.
6:50 AM 8:06 PM
Waning Crescent, 14% visible
METAR KGVT 181115Z AUTO 00000KT 10SM CLR 26/25 A2999 RMK AO2

Get Your Daily Forecast Email!

Thanks for signing up!

Be on the lookout for a verification email in your inbox.

You'll start receiving severe weather alerts in your inbox..

×

10-Day Weather Forecast

Almanac

Astronomy

Aug. 18, 2017 Rise Set
Actual Time
Civil Twilight
Nautical Twilight
Astronomical Twilight
Moon
Length of Visible Light
Length of Day
Tomorrow will be .
, % of the Moon is Illuminated

Today's Extremes

State Highs State Lows

Community

WunderPhotos

Category 6

Welcome to Category 6. This is the collective home for Weather Underground's featured writeups by Dr. Jeff Masters (right), Bob Henson (left), Chris Burt, and other regular contributors.

Nearby

Air Quality

  Air Quality AQ Index Pollutant
Not available.

Snow Depth

Station Depth Elevation

Earthquake Activity

City Distance Mag. Time & Date
Minimum magnitude displayed is 2.5.

Coastal Water Temperatures

Place Temperature

Stations

Nearby Weather Stations

Station Location Temp. Windchill Dew Point Humidity Wind Precip. Elev Updated Type
                   

Watches & Warnings

Flood Warning
Issued: 8:09 PM CDT Aug. 17, 2017 – National Weather Service

The Flood Warning continues for
the South Fork Sabine River near Quinlan.
* At 0745 PM Thursday the stage was 15.47 feet.
* Flood stage is 15 feet.
* Minor flooding is occurring and minor flooding is forecast.
* Forecast... the river will continue rising to a crest near 16 feet
by Friday after midnight. The river should fall below flood stage
late Friday morning.
* At 15 feet, minor out of bank flooding will occur.


Lat... Lon 3297 9627 3293 9615 3283 9620 3287 9634



809 PM CDT Thu Aug 17 2017

The Flood Warning continues for
the cowleech Fork Sabine River at Greenville.
* At 0745 PM Thursday the stage was 16.99 feet.
* Flood stage is 14 feet.
* Minor flooding is occurring and moderate flooding is forecast.
* Forecast... the river will continue rising to a crest near 17 feet
by Friday after midnight. The river should fall below flood stage
Friday evening.


Lat... Lon 3319 9605 3309 9595 3303 9607 3317 9619